createdAt,value
2016-06-21T00:00:23.099Z,0
2016-06-21T00:01:23.099Z,0
2016-06-21T00:02:23.075Z,0
2016-06-21T00:03:22.466Z,0
2016-06-21T00:04:23.097Z,0
2016-06-21T00:05:23.087Z,0
2016-06-21T00:06:23.077Z,0
2016-06-21T00:07:23.099Z,0
2016-06-21T00:08:23.074Z,0
2016-06-21T00:09:23.140Z,0
2016-06-21T00:10:23.109Z,0
2016-06-21T00:11:23.101Z,0
2016-06-21T00:12:23.081Z,0
2016-06-21T00:13:23.070Z,0
2016-06-21T00:14:23.093Z,0
2016-06-21T00:15:23.114Z,0
2016-06-21T00:16:23.089Z,0
2016-06-21T00:17:22.546Z,0
2016-06-21T00:18:23.105Z,0
2016-06-21T00:19:23.094Z,0
2016-06-21T00:20:23.107Z,0
2016-06-21T00:21:23.089Z,0
2016-06-21T00:22:23.113Z,0
2016-06-21T00:23:23.110Z,0
2016-06-21T00:24:23.107Z,0
2016-06-21T00:25:23.123Z,0
2016-06-21T00:26:23.108Z,0
2016-06-21T00:27:23.399Z,0
2016-06-21T00:28:23.093Z,0
2016-06-21T00:29:23.121Z,0
2016-06-21T00:30:23.108Z,0
2016-06-21T00:31:23.098Z,0
2016-06-21T00:32:23.121Z,0
2016-06-21T00:33:23.126Z,0
2016-06-21T00:34:23.139Z,0
2016-06-21T00:35:23.146Z,0
2016-06-21T00:36:23.102Z,0
2016-06-21T00:37:23.154Z,0
2016-06-21T00:38:23.122Z,0
2016-06-21T00:39:23.107Z,0
2016-06-21T00:40:23.119Z,0
2016-06-21T00:41:23.143Z,0
2016-06-21T00:42:23.099Z,0
2016-06-21T00:43:23.110Z,0
2016-06-21T00:44:23.122Z,0
2016-06-21T00:45:23.109Z,0
2016-06-21T00:46:23.110Z,0
2016-06-21T00:47:23.126Z,0
2016-06-21T00:48:23.115Z,0
2016-06-21T00:49:23.114Z,0
2016-06-21T00:50:23.126Z,0
2016-06-21T00:51:23.114Z,0
2016-06-21T00:52:23.102Z,0
2016-06-21T00:53:23.100Z,0
2016-06-21T00:54:23.101Z,0
2016-06-21T00:55:23.124Z,0
2016-06-21T00:56:23.119Z,0
2016-06-21T00:57:23.126Z,0
2016-06-21T00:58:23.130Z,0
2016-06-21T00:59:23.128Z,0
2016-06-21T01:00:23.151Z,0
2016-06-21T01:01:23.129Z,0
2016-06-21T01:02:23.159Z,0
2016-06-21T01:03:23.130Z,0
2016-06-21T01:04:23.125Z,0
2016-06-21T01:05:23.138Z,0
2016-06-21T01:06:23.137Z,0
2016-06-21T01:07:23.130Z,0
2016-06-21T01:08:23.141Z,0
2016-06-21T01:09:23.133Z,0
2016-06-21T01:10:23.116Z,0
2016-06-21T01:11:23.127Z,0
2016-06-21T01:12:23.138Z,0
2016-06-21T01:13:23.122Z,0
2016-06-21T01:14:23.134Z,0
2016-06-21T01:15:23.122Z,0
2016-06-21T01:16:23.137Z,0
2016-06-21T01:17:23.125Z,0
2016-06-21T01:18:23.126Z,0
2016-06-21T01:19:23.131Z,0
2016-06-21T01:20:23.130Z,0
2016-06-21T01:21:23.135Z,0
2016-06-21T01:22:23.131Z,0
2016-06-21T01:23:23.122Z,0
2016-06-21T01:24:23.135Z,0
2016-06-21T01:25:23.126Z,0
2016-06-21T01:26:23.131Z,0
2016-06-21T01:27:23.126Z,0
2016-06-21T01:28:23.130Z,0
2016-06-21T01:29:23.118Z,0
2016-06-21T01:30:23.116Z,0
2016-06-21T01:31:23.135Z,0
2016-06-21T01:32:23.136Z,0
2016-06-21T01:33:23.121Z,0
2016-06-21T01:34:23.136Z,0
2016-06-21T01:35:23.143Z,0
2016-06-21T01:36:23.126Z,0
2016-06-21T01:37:23.127Z,0
2016-06-21T01:38:23.131Z,0
2016-06-21T01:39:23.120Z,0
2016-06-21T01:40:23.128Z,0
2016-06-21T01:41:23.135Z,0
2016-06-21T01:42:23.172Z,0
2016-06-21T01:43:23.122Z,0
2016-06-21T01:44:23.126Z,0
2016-06-21T01:45:23.140Z,0
2016-06-21T01:46:23.107Z,0
2016-06-21T01:47:23.125Z,0
2016-06-21T01:48:23.130Z,0
2016-06-21T01:49:23.124Z,0
2016-06-21T01:50:23.132Z,0
2016-06-21T01:51:23.151Z,0
2016-06-21T01:52:23.135Z,0
2016-06-21T01:53:23.118Z,0
2016-06-21T01:54:23.128Z,0
2016-06-21T01:55:23.141Z,0
2016-06-21T01:56:23.133Z,0
2016-06-21T01:57:23.370Z,0
2016-06-21T01:58:23.139Z,0
2016-06-21T01:59:23.167Z,0
2016-06-21T02:00:23.127Z,0
2016-06-21T02:01:23.134Z,0
2016-06-21T02:02:23.139Z,0
2016-06-21T02:03:23.134Z,0
2016-06-21T02:04:23.138Z,0
2016-06-21T02:05:23.129Z,0
2016-06-21T02:06:23.169Z,0
2016-06-21T02:07:23.146Z,0
2016-06-21T02:08:23.133Z,0
2016-06-21T02:10:22.572Z,0
2016-06-21T02:10:34.341Z,0
2016-06-21T02:11:34.324Z,0
2016-06-21T02:12:34.339Z,0
2016-06-21T02:13:34.321Z,0
2016-06-21T02:14:34.352Z,0
2016-06-21T02:15:34.335Z,0
2016-06-21T02:16:34.332Z,0
2016-06-21T02:17:34.397Z,0
2016-06-21T02:18:34.341Z,0
2016-06-21T02:19:34.319Z,0
2016-06-21T02:20:34.356Z,0
2016-06-21T02:21:34.353Z,0
2016-06-21T02:22:34.334Z,0
2016-06-21T02:23:34.357Z,0
2016-06-21T02:24:34.337Z,0
2016-06-21T02:25:34.319Z,0
2016-06-21T02:26:34.346Z,0
2016-06-21T02:27:34.326Z,0
2016-06-21T02:28:34.326Z,0
2016-06-21T02:29:34.347Z,0
2016-06-21T02:30:34.365Z,0
2016-06-21T02:31:34.337Z,0
2016-06-21T02:32:34.330Z,0
2016-06-21T02:33:34.397Z,0
2016-06-21T02:34:34.326Z,0
2016-06-21T02:35:34.338Z,0
2016-06-21T02:36:34.346Z,0
2016-06-21T02:37:34.334Z,0
2016-06-21T02:38:34.346Z,0
2016-06-21T02:39:34.341Z,0
2016-06-21T02:40:34.351Z,0
2016-06-21T02:41:34.352Z,0
2016-06-21T02:42:34.363Z,0
2016-06-21T02:43:34.366Z,0
2016-06-21T02:44:34.357Z,0
2016-06-21T02:45:34.353Z,0
2016-06-21T02:46:34.347Z,0
2016-06-21T02:47:34.385Z,0
2016-06-21T02:48:34.589Z,0
2016-06-21T02:49:34.335Z,0
2016-06-21T02:50:34.350Z,0
2016-06-21T02:51:34.351Z,0
2016-06-21T02:52:34.358Z,0
2016-06-21T02:53:34.349Z,0
2016-06-21T02:54:34.349Z,0
2016-06-21T02:55:34.341Z,0
2016-06-21T02:56:34.355Z,0
2016-06-21T02:57:34.366Z,0
2016-06-21T02:58:34.353Z,0
2016-06-21T02:59:34.340Z,0
2016-06-21T03:00:34.344Z,0
2016-06-21T03:01:34.373Z,0
2016-06-21T03:02:34.366Z,0
2016-06-21T03:03:34.355Z,0
2016-06-21T03:04:34.325Z,0
2016-06-21T03:05:34.345Z,0
2016-06-21T03:06:34.364Z,0
2016-06-21T03:07:34.353Z,0
2016-06-21T03:08:34.351Z,0
2016-06-21T03:09:34.346Z,0
2016-06-21T03:10:34.361Z,0
2016-06-21T03:11:34.391Z,0
2016-06-21T03:12:34.364Z,0
2016-06-21T03:13:34.358Z,0
2016-06-21T03:14:34.351Z,0
2016-06-21T03:15:34.366Z,0
2016-06-21T03:16:34.363Z,0
2016-06-21T03:17:34.373Z,0
2016-06-21T03:18:34.380Z,0
2016-06-21T03:19:34.362Z,0
2016-06-21T03:20:34.368Z,0
2016-06-21T03:21:34.351Z,0
2016-06-21T03:22:34.338Z,0
2016-06-21T03:23:34.366Z,0
2016-06-21T03:24:33.142Z,0
2016-06-21T03:25:34.393Z,0
2016-06-21T03:26:34.368Z,0
2016-06-21T03:27:34.339Z,0
2016-06-21T03:28:34.364Z,0
2016-06-21T03:29:34.366Z,0
2016-06-21T03:30:34.364Z,0
2016-06-21T03:31:34.359Z,0
2016-06-21T03:32:34.370Z,0
2016-06-21T03:33:34.373Z,0
2016-06-21T03:34:34.370Z,0
2016-06-21T03:35:34.355Z,0
2016-06-21T03:36:34.362Z,0
2016-06-21T03:37:34.363Z,0
2016-06-21T03:38:34.364Z,0
2016-06-21T03:39:34.367Z,0
2016-06-21T03:40:34.370Z,0
2016-06-21T03:41:34.351Z,0
2016-06-21T03:42:34.374Z,0
2016-06-21T03:43:34.382Z,0
2016-06-21T03:44:34.375Z,0
2016-06-21T03:45:34.360Z,0
2016-06-21T03:46:34.367Z,0
2016-06-21T03:47:34.387Z,0
2016-06-21T03:48:34.352Z,0
2016-06-21T03:49:34.357Z,0
2016-06-21T03:50:34.350Z,5
2016-06-21T03:51:34.353Z,5
2016-06-21T03:52:34.365Z,5
2016-06-21T03:53:34.362Z,5
2016-06-21T03:54:34.387Z,5
2016-06-21T03:55:34.396Z,5
2016-06-21T03:56:34.346Z,5
2016-06-21T03:57:34.376Z,5
2016-06-21T03:58:34.367Z,5
2016-06-21T03:59:34.388Z,5
2016-06-21T04:00:34.386Z,5
2016-06-21T04:01:34.370Z,5
2016-06-21T04:02:34.395Z,5
2016-06-21T04:03:34.379Z,5
2016-06-21T04:04:34.392Z,5
2016-06-21T04:05:34.353Z,5
2016-06-21T04:06:34.364Z,5
2016-06-21T04:07:34.376Z,5
2016-06-21T04:08:34.359Z,5
2016-06-21T04:09:34.375Z,10
2016-06-21T04:10:34.372Z,10
2016-06-21T04:11:34.345Z,10
2016-06-21T04:12:34.360Z,5
2016-06-21T04:13:34.382Z,5
2016-06-21T04:14:34.375Z,5
2016-06-21T04:15:34.363Z,5
2016-06-21T04:16:34.372Z,5
2016-06-21T04:17:34.401Z,5
2016-06-21T04:18:34.376Z,5
2016-06-21T04:19:34.375Z,10
2016-06-21T04:20:34.381Z,10
2016-06-21T04:21:34.366Z,10
2016-06-21T04:22:34.361Z,10
2016-06-21T04:23:34.377Z,10
2016-06-21T04:24:34.367Z,10
2016-06-21T04:25:34.372Z,10
2016-06-21T04:26:34.390Z,10
2016-06-21T04:27:34.354Z,10
2016-06-21T04:28:34.379Z,10
2016-06-21T04:29:34.387Z,10
2016-06-21T04:30:34.339Z,10
2016-06-21T04:31:34.380Z,10
2016-06-21T04:32:34.385Z,10
2016-06-21T04:33:33.760Z,10
2016-06-21T04:34:34.399Z,15
2016-06-21T04:35:34.405Z,10
2016-06-21T04:36:34.374Z,10
2016-06-21T04:37:34.400Z,15
2016-06-21T04:38:34.382Z,15
2016-06-21T04:39:34.377Z,15
2016-06-21T04:40:34.376Z,15
2016-06-21T04:41:34.396Z,20
2016-06-21T04:42:34.362Z,20
2016-06-21T04:43:34.378Z,20
2016-06-21T04:44:34.387Z,20
2016-06-21T04:45:34.377Z,20
2016-06-21T04:46:34.386Z,20
2016-06-21T04:47:34.414Z,30
2016-06-21T04:48:34.379Z,30
2016-06-21T04:49:34.382Z,30
2016-06-21T04:50:34.408Z,25
2016-06-21T04:51:34.378Z,25
2016-06-21T04:52:34.377Z,25
2016-06-21T04:53:34.407Z,30
2016-06-21T04:54:34.390Z,30
2016-06-21T04:55:34.385Z,25
2016-06-21T04:56:34.389Z,30
2016-06-21T04:57:34.418Z,30
2016-06-21T04:58:34.389Z,30
2016-06-21T04:59:34.384Z,30
2016-06-21T05:00:34.397Z,30
2016-06-21T05:01:34.369Z,30
2016-06-21T05:02:34.385Z,25
2016-06-21T05:03:34.401Z,25
2016-06-21T05:04:34.375Z,30
2016-06-21T05:05:34.415Z,25
2016-06-21T05:06:34.393Z,25
2016-06-21T05:07:34.372Z,25
2016-06-21T05:08:34.381Z,25
2016-06-21T05:09:34.396Z,30
2016-06-21T05:10:34.392Z,30
2016-06-21T05:11:34.370Z,30
2016-06-21T05:12:34.405Z,30
2016-06-21T05:13:34.399Z,30
2016-06-21T05:14:34.387Z,35
2016-06-21T05:15:34.394Z,35
2016-06-21T05:16:34.389Z,30
2016-06-21T05:17:34.383Z,35
2016-06-21T05:18:34.395Z,35
2016-06-21T05:19:34.394Z,30
2016-06-21T05:20:34.382Z,30
2016-06-21T05:21:34.401Z,25
2016-06-21T05:22:34.390Z,30
2016-06-21T05:23:34.391Z,30
2016-06-21T05:24:34.370Z,30
2016-06-21T05:25:34.388Z,30
2016-06-21T05:26:34.407Z,30
2016-06-21T05:27:34.389Z,30
2016-06-21T05:28:34.390Z,30
2016-06-21T05:29:34.400Z,25
2016-06-21T05:30:34.402Z,25
2016-06-21T05:31:34.407Z,30
2016-06-21T05:32:34.418Z,25
2016-06-21T05:33:34.410Z,20
2016-06-21T05:34:34.397Z,25
2016-06-21T05:35:34.410Z,20
2016-06-21T05:36:34.398Z,25
2016-06-21T05:37:34.394Z,20
2016-06-21T05:38:34.412Z,20
2016-06-21T05:39:34.382Z,20
2016-06-21T05:40:34.399Z,20
2016-06-21T05:41:34.423Z,25
2016-06-21T05:42:34.390Z,20
2016-06-21T05:43:34.413Z,25
2016-06-21T05:44:34.389Z,25
2016-06-21T05:45:34.402Z,20
2016-06-21T05:46:34.376Z,25
2016-06-21T05:47:34.431Z,25
2016-06-21T05:48:34.402Z,25
2016-06-21T05:49:34.396Z,20
2016-06-21T05:50:34.400Z,25
2016-06-21T05:51:34.411Z,25
2016-06-21T05:52:34.395Z,30
2016-06-21T05:53:34.411Z,30
2016-06-21T05:54:34.418Z,30
2016-06-21T05:55:34.405Z,30
2016-06-21T05:56:34.423Z,35
2016-06-21T05:57:34.413Z,40
2016-06-21T05:58:34.407Z,50
2016-06-21T05:59:33.810Z,50
2016-06-21T06:00:34.410Z,45
2016-06-21T06:01:34.431Z,50
2016-06-21T06:02:34.414Z,50
2016-06-21T06:03:33.803Z,40
2016-06-21T06:04:34.426Z,30
2016-06-21T06:05:34.413Z,25
2016-06-21T06:06:34.426Z,25
2016-06-21T06:07:34.407Z,20
2016-06-21T06:08:34.415Z,20
2016-06-21T06:09:34.423Z,25
2016-06-21T06:10:34.414Z,25
2016-06-21T06:11:34.422Z,25
2016-06-21T06:12:34.406Z,25
2016-06-21T06:13:34.422Z,25
2016-06-21T06:14:34.425Z,30
2016-06-21T06:15:34.410Z,25
2016-06-21T06:16:34.408Z,30
2016-06-21T06:17:34.444Z,25
2016-06-21T06:18:34.419Z,30
2016-06-21T06:19:34.424Z,30
2016-06-21T06:20:34.436Z,25
2016-06-21T06:21:34.407Z,25
2016-06-21T06:22:34.407Z,20
2016-06-21T06:23:34.399Z,25
2016-06-21T06:24:34.427Z,20
2016-06-21T06:25:34.426Z,20
2016-06-21T06:26:33.883Z,25
2016-06-21T06:27:34.421Z,25
2016-06-21T06:28:34.432Z,30
2016-06-21T06:29:34.424Z,40
2016-06-21T06:30:34.423Z,45
2016-06-21T06:31:34.486Z,55
2016-06-21T06:32:34.426Z,50
2016-06-21T06:33:34.408Z,55
2016-06-21T06:34:34.450Z,50
2016-06-21T06:35:34.426Z,45
2016-06-21T06:36:34.412Z,40
2016-06-21T06:37:34.425Z,45
2016-06-21T06:38:34.419Z,40
2016-06-21T06:39:34.430Z,35
2016-06-21T06:40:34.428Z,30
2016-06-21T06:41:34.461Z,35
2016-06-21T06:42:34.455Z,30
2016-06-21T06:43:34.442Z,30
2016-06-21T06:44:34.453Z,40
2016-06-21T06:45:34.421Z,30
2016-06-21T06:46:34.418Z,35
2016-06-21T06:47:34.432Z,35
2016-06-21T06:48:34.433Z,30
2016-06-21T06:49:34.420Z,25
2016-06-21T06:50:34.451Z,30
2016-06-21T06:51:34.439Z,30
2016-06-21T06:52:34.417Z,35
2016-06-21T06:53:34.433Z,40
2016-06-21T06:54:34.434Z,45
2016-06-21T06:55:34.116Z,45
2016-06-21T06:56:34.436Z,45
2016-06-21T06:57:34.430Z,50
2016-06-21T06:58:34.434Z,55
2016-06-21T06:59:34.446Z,60
2016-06-21T07:00:34.441Z,60
2016-06-21T07:01:34.470Z,55
2016-06-21T07:02:34.442Z,50
2016-06-21T07:03:34.447Z,50
2016-06-21T07:04:34.462Z,50
2016-06-21T07:05:34.432Z,50
2016-06-21T07:06:34.095Z,50
2016-06-21T07:07:34.448Z,55
2016-06-21T07:08:34.465Z,60
2016-06-21T07:09:34.482Z,60
2016-06-21T07:10:34.438Z,65
2016-06-21T07:11:34.444Z,65
2016-06-21T07:12:34.445Z,65
2016-06-21T07:13:34.449Z,70
2016-06-21T07:14:34.450Z,65
2016-06-21T07:15:34.445Z,70
2016-06-21T07:16:34.432Z,70
2016-06-21T07:17:34.555Z,75
2016-06-21T07:18:34.458Z,75
2016-06-21T07:19:34.453Z,80
2016-06-21T07:20:34.447Z,80
2016-06-21T07:21:34.452Z,85
2016-06-21T07:22:34.457Z,95
2016-06-21T07:23:34.539Z,85
2016-06-21T07:24:34.431Z,80
2016-06-21T07:25:34.497Z,95
2016-06-21T07:26:34.477Z,100
2016-06-21T07:27:34.476Z,105
2016-06-21T07:28:34.489Z,115
2016-06-21T07:29:34.451Z,120
2016-06-21T07:30:34.468Z,120
2016-06-21T07:31:34.464Z,140
2016-06-21T07:32:33.859Z,150
2016-06-21T07:33:34.466Z,145
2016-06-21T07:34:34.450Z,150
2016-06-21T07:35:34.480Z,145
2016-06-21T07:36:34.460Z,145
2016-06-21T07:37:34.469Z,120
2016-06-21T07:38:34.487Z,115
2016-06-21T07:39:34.525Z,120
2016-06-21T07:40:34.508Z,115
2016-06-21T07:41:34.506Z,110
2016-06-21T07:42:34.480Z,110
2016-06-21T07:43:34.489Z,110
2016-06-21T07:44:34.478Z,115
2016-06-21T07:45:34.485Z,105
2016-06-21T07:46:34.477Z,110
2016-06-21T07:47:34.473Z,110
2016-06-21T07:48:34.485Z,115
2016-06-21T07:49:34.519Z,120
2016-06-21T07:50:34.493Z,115
2016-06-21T07:51:34.471Z,125
2016-06-21T07:52:34.494Z,120
2016-06-21T07:53:34.521Z,115
2016-06-21T07:54:34.511Z,110
2016-06-21T07:55:34.498Z,125
2016-06-21T07:56:34.486Z,135
2016-06-21T07:57:34.477Z,130
2016-06-21T07:58:34.475Z,140
2016-06-21T07:59:34.468Z,155
2016-06-21T08:00:34.498Z,155
2016-06-21T08:01:34.501Z,145
2016-06-21T08:02:34.479Z,145
2016-06-21T08:03:34.463Z,165
2016-06-21T08:04:34.525Z,155
2016-06-21T08:05:34.497Z,150
2016-06-21T08:06:34.462Z,155
2016-06-21T08:07:34.478Z,180
2016-06-21T08:08:34.487Z,210
2016-06-21T08:09:34.498Z,225
2016-06-21T08:10:34.498Z,220
2016-06-21T08:11:34.530Z,230
2016-06-21T08:12:34.493Z,210
2016-06-21T08:13:34.521Z,200
2016-06-21T08:14:34.490Z,200
2016-06-21T08:15:34.491Z,210
2016-06-21T08:16:34.509Z,210
2016-06-21T08:17:34.519Z,205
2016-06-21T08:18:34.503Z,200
2016-06-21T08:19:34.521Z,195
2016-06-21T08:20:34.519Z,200
2016-06-21T08:21:34.495Z,220
2016-06-21T08:22:34.521Z,250
2016-06-21T08:23:34.517Z,295
2016-06-21T08:24:34.533Z,315
2016-06-21T08:25:34.533Z,365
2016-06-21T08:26:34.527Z,365
2016-06-21T08:27:34.538Z,450
2016-06-21T08:28:34.572Z,360
2016-06-21T08:29:34.562Z,380
2016-06-21T08:30:34.538Z,390
2016-06-21T08:31:34.541Z,595
2016-06-21T08:32:34.538Z,770
2016-06-21T08:33:34.547Z,620
2016-06-21T08:34:34.546Z,650
2016-06-21T08:35:34.547Z,495
2016-06-21T08:36:34.580Z,400
2016-06-21T08:37:34.584Z,485
2016-06-21T08:38:34.789Z,485
2016-06-21T08:39:34.579Z,520
2016-06-21T08:40:34.578Z,435
2016-06-21T08:41:34.559Z,515
2016-06-21T08:42:34.585Z,500
2016-06-21T08:43:34.595Z,455
2016-06-21T08:44:34.596Z,395
2016-06-21T08:45:34.580Z,370
2016-06-21T08:46:34.589Z,360
2016-06-21T08:47:34.585Z,415
2016-06-21T08:48:34.591Z,415
2016-06-21T08:49:34.607Z,375
2016-06-21T08:50:34.635Z,355
2016-06-21T08:51:34.591Z,410
2016-06-21T08:52:34.625Z,620
2016-06-21T08:53:34.617Z,520
2016-06-21T08:54:34.610Z,560
2016-06-21T08:55:34.678Z,470
2016-06-21T08:56:34.627Z,490
2016-06-21T08:57:34.639Z,430
2016-06-21T08:58:34.639Z,380
2016-06-21T08:59:34.655Z,340
2016-06-21T09:00:34.650Z,365
2016-06-21T09:01:34.654Z,1050
2016-06-21T09:02:34.666Z,785
2016-06-21T09:03:34.657Z,750
2016-06-21T09:04:34.666Z,550
2016-06-21T09:05:34.068Z,550
2016-06-21T09:06:34.659Z,495
2016-06-21T09:07:34.677Z,620
2016-06-21T09:08:34.688Z,470
2016-06-21T09:09:34.678Z,425
2016-06-21T09:10:34.723Z,395
2016-06-21T09:11:34.688Z,405
2016-06-21T09:12:34.698Z,400
2016-06-21T09:13:34.726Z,400
2016-06-21T09:14:34.705Z,395
2016-06-21T09:15:34.701Z,395
2016-06-21T09:16:34.725Z,435
2016-06-21T09:17:34.807Z,470
2016-06-21T09:18:34.715Z,460
2016-06-21T09:19:34.747Z,465
2016-06-21T09:20:34.722Z,455
2016-06-21T09:21:34.739Z,435
2016-06-21T09:22:34.746Z,440
2016-06-21T09:23:34.751Z,455
2016-06-21T09:24:34.745Z,455
2016-06-21T09:25:34.759Z,435
2016-06-21T09:26:34.768Z,370
2016-06-21T09:27:34.783Z,395
2016-06-21T09:28:34.778Z,420
2016-06-21T09:29:34.770Z,410
2016-06-21T09:30:34.781Z,360
2016-06-21T09:31:34.805Z,335
2016-06-21T09:32:34.784Z,285
2016-06-21T09:33:34.795Z,270
2016-06-21T09:34:34.797Z,255
2016-06-21T09:35:34.806Z,295
2016-06-21T09:36:34.815Z,365
2016-06-21T09:37:34.822Z,410
2016-06-21T09:38:34.815Z,385
2016-06-21T09:39:34.829Z,310
2016-06-21T09:40:34.848Z,275
2016-06-21T09:41:34.829Z,275
2016-06-21T09:42:34.823Z,285
2016-06-21T09:43:34.862Z,255
2016-06-21T09:44:34.865Z,265
2016-06-21T09:45:34.874Z,260
2016-06-21T09:46:34.848Z,240
2016-06-21T09:47:34.869Z,235
2016-06-21T09:48:34.889Z,225
2016-06-21T09:49:34.263Z,240
2016-06-21T09:50:34.882Z,245
2016-06-21T09:51:34.873Z,265
2016-06-21T09:52:34.917Z,255
2016-06-21T09:53:34.907Z,265
2016-06-21T09:54:34.911Z,240
2016-06-21T09:55:34.943Z,220
2016-06-21T09:56:34.911Z,220
2016-06-21T09:57:34.954Z,240
2016-06-21T09:58:34.922Z,240
2016-06-21T09:59:34.948Z,215
2016-06-21T10:00:34.949Z,190
2016-06-21T10:01:34.904Z,180
2016-06-21T10:02:34.917Z,185
2016-06-21T10:03:34.959Z,185
2016-06-21T10:04:34.948Z,175
2016-06-21T10:05:34.950Z,165
2016-06-21T10:06:34.953Z,180
2016-06-21T10:07:34.953Z,190
2016-06-21T10:08:34.967Z,195
2016-06-21T10:09:35.027Z,200
2016-06-21T10:10:34.981Z,215
2016-06-21T10:11:34.996Z,230
2016-06-21T10:12:34.969Z,270
2016-06-21T10:13:34.994Z,240
2016-06-21T10:14:34.979Z,235
2016-06-21T10:15:35.031Z,225
2016-06-21T10:16:34.991Z,250
2016-06-21T10:17:34.994Z,265
2016-06-21T10:18:35.057Z,275
2016-06-21T10:19:35.008Z,285
2016-06-21T10:20:35.030Z,285
2016-06-21T10:21:35.019Z,275
2016-06-21T10:22:35.039Z,285
2016-06-21T10:23:35.045Z,315
2016-06-21T10:24:35.040Z,285
2016-06-21T10:25:34.471Z,255
2016-06-21T10:26:35.040Z,265
2016-06-21T10:27:35.050Z,255
2016-06-21T10:28:35.040Z,260
2016-06-21T10:29:35.044Z,275
2016-06-21T10:30:35.075Z,280
2016-06-21T10:31:35.048Z,310
2016-06-21T10:32:35.057Z,295
2016-06-21T10:33:35.073Z,285
2016-06-21T10:34:35.115Z,280
2016-06-21T10:35:35.090Z,280
2016-06-21T10:36:35.086Z,285
2016-06-21T10:37:34.450Z,285
2016-06-21T10:38:35.078Z,275
2016-06-21T10:39:35.078Z,270
2016-06-21T10:40:35.094Z,260
2016-06-21T10:41:35.086Z,255
2016-06-21T10:42:35.107Z,280
2016-06-21T10:43:35.096Z,275
2016-06-21T10:44:35.103Z,275
2016-06-21T10:45:35.095Z,275
2016-06-21T10:46:35.123Z,280
2016-06-21T10:47:35.129Z,285
2016-06-21T10:48:35.163Z,295
2016-06-21T10:49:35.129Z,290
2016-06-21T10:50:35.130Z,275
2016-06-21T10:51:35.134Z,290
2016-06-21T10:52:35.136Z,300
2016-06-21T10:53:35.166Z,315
2016-06-21T10:54:35.144Z,315
2016-06-21T10:55:35.143Z,295
2016-06-21T10:56:35.164Z,290
2016-06-21T10:57:35.170Z,300
2016-06-21T10:58:35.198Z,290
2016-06-21T10:59:35.175Z,275
2016-06-21T11:00:34.595Z,280
2016-06-21T11:01:34.579Z,275
2016-06-21T11:02:35.198Z,275
2016-06-21T11:03:35.183Z,275
2016-06-21T11:04:35.219Z,275
2016-06-21T11:05:35.207Z,270
2016-06-21T11:06:35.185Z,265
2016-06-21T11:07:35.202Z,245
2016-06-21T11:08:35.206Z,220
2016-06-21T11:09:35.216Z,215
2016-06-21T11:10:35.216Z,205
2016-06-21T11:11:35.250Z,200
2016-06-21T11:12:35.214Z,230
2016-06-21T11:13:35.230Z,270
2016-06-21T11:14:35.259Z,270
2016-06-21T11:15:35.236Z,260
2016-06-21T11:16:35.240Z,245
2016-06-21T11:17:35.351Z,240
2016-06-21T11:18:35.272Z,235
2016-06-21T11:19:35.272Z,235
2016-06-21T11:20:35.279Z,235
2016-06-21T11:21:35.305Z,225
2016-06-21T11:22:35.269Z,210
2016-06-21T11:23:35.296Z,195
2016-06-21T11:24:35.283Z,175
2016-06-21T11:25:34.674Z,180
2016-06-21T11:26:35.285Z,200
2016-06-21T11:27:35.308Z,225
2016-06-21T11:28:35.336Z,225
2016-06-21T11:29:35.315Z,215
2016-06-21T11:30:34.995Z,235
2016-06-21T11:31:35.312Z,270
2016-06-21T11:32:35.315Z,280
2016-06-21T11:33:35.497Z,280
2016-06-21T11:34:35.337Z,285
2016-06-21T11:35:35.360Z,285
2016-06-21T11:36:34.715Z,280
2016-06-21T11:37:35.343Z,280
2016-06-21T11:38:35.346Z,270
2016-06-21T11:39:35.354Z,250
2016-06-21T11:40:35.431Z,250
2016-06-21T11:41:35.345Z,250
2016-06-21T11:42:35.345Z,260
2016-06-21T11:43:35.338Z,265
2016-06-21T11:44:35.355Z,285
2016-06-21T11:45:35.359Z,310
2016-06-21T11:46:35.361Z,325
2016-06-21T11:47:35.351Z,315
2016-06-21T11:48:35.381Z,295
2016-06-21T11:49:35.377Z,295
2016-06-21T11:50:35.601Z,310
2016-06-21T11:51:35.610Z,300
2016-06-21T11:52:35.397Z,295
2016-06-21T11:53:35.392Z,290
2016-06-21T11:54:35.396Z,280
2016-06-21T11:55:35.393Z,275
2016-06-21T11:56:35.421Z,260
2016-06-21T11:57:35.422Z,245
2016-06-21T11:58:34.832Z,230
2016-06-21T11:59:35.408Z,225
2016-06-21T12:00:35.423Z,235
2016-06-21T12:01:35.431Z,255
2016-06-21T12:02:35.460Z,270
2016-06-21T12:03:35.415Z,285
2016-06-21T12:04:35.434Z,280
2016-06-21T12:05:35.446Z,280
2016-06-21T12:06:35.436Z,295
2016-06-21T12:07:34.868Z,305
2016-06-21T12:08:35.470Z,305
2016-06-21T12:09:35.480Z,305
2016-06-21T12:10:35.473Z,320
2016-06-21T12:11:34.879Z,340
2016-06-21T12:12:35.518Z,330
2016-06-21T12:13:35.460Z,330
2016-06-21T12:14:35.478Z,315
2016-06-21T12:15:35.517Z,305
2016-06-21T12:16:35.500Z,300
2016-06-21T12:17:35.505Z,285
2016-06-21T12:18:35.543Z,285
2016-06-21T12:19:35.502Z,290
2016-06-21T12:20:35.519Z,280
2016-06-21T12:21:35.510Z,285
2016-06-21T12:22:35.532Z,285
2016-06-21T12:23:35.533Z,295
2016-06-21T12:24:35.540Z,280
2016-06-21T12:25:35.553Z,265
2016-06-21T12:26:35.559Z,250
2016-06-21T12:27:35.526Z,235
2016-06-21T12:28:35.573Z,225
2016-06-21T12:29:35.551Z,225
2016-06-21T12:30:35.558Z,210
2016-06-21T12:31:35.564Z,215
2016-06-21T12:32:35.578Z,210
2016-06-21T12:33:35.595Z,200
2016-06-21T12:34:35.587Z,200
2016-06-21T12:35:34.965Z,215
2016-06-21T12:36:35.579Z,215
2016-06-21T12:37:35.595Z,205
2016-06-21T12:38:35.597Z,200
2016-06-21T12:39:35.605Z,190
2016-06-21T12:40:35.606Z,190
2016-06-21T12:41:35.609Z,185
2016-06-21T12:42:35.594Z,190
2016-06-21T12:43:35.601Z,195
2016-06-21T12:44:35.620Z,195
2016-06-21T12:45:35.613Z,205
2016-06-21T12:46:35.627Z,215
2016-06-21T12:47:35.624Z,225
2016-06-21T12:48:36.064Z,220
2016-06-21T12:49:35.638Z,225
2016-06-21T12:50:35.653Z,225
2016-06-21T12:51:35.638Z,225
2016-06-21T12:52:35.648Z,225
2016-06-21T12:53:35.642Z,225
2016-06-21T12:54:35.650Z,215
2016-06-21T12:55:35.642Z,215
2016-06-21T12:56:35.666Z,220
2016-06-21T12:57:35.664Z,215
2016-06-21T12:58:35.677Z,215
2016-06-21T12:59:35.694Z,225
2016-06-21T13:00:35.684Z,220
2016-06-21T13:01:35.699Z,235
2016-06-21T13:02:35.687Z,250
2016-06-21T13:03:35.700Z,265
2016-06-21T13:04:35.706Z,275
2016-06-21T13:05:35.705Z,280
2016-06-21T13:06:35.696Z,290
2016-06-21T13:07:35.705Z,300
2016-06-21T13:08:35.739Z,310
2016-06-21T13:09:35.721Z,295
2016-06-21T13:10:35.722Z,270
2016-06-21T13:11:35.749Z,265
2016-06-21T13:12:35.763Z,260
2016-06-21T13:13:35.758Z,250
2016-06-21T13:14:35.141Z,240
2016-06-21T13:15:35.158Z,240
2016-06-21T13:16:35.757Z,245
2016-06-21T13:17:35.853Z,255
2016-06-21T13:18:35.769Z,255
2016-06-21T13:19:35.754Z,265
2016-06-21T13:20:35.173Z,275
2016-06-21T13:21:35.809Z,275
2016-06-21T13:22:35.770Z,280
2016-06-21T13:23:35.825Z,280
2016-06-21T13:24:35.818Z,275
2016-06-21T13:25:35.789Z,275
2016-06-21T13:26:35.793Z,275
2016-06-21T13:27:35.804Z,270
2016-06-21T13:28:35.807Z,265
2016-06-21T13:29:35.801Z,260
2016-06-21T13:31:35.829Z,255
2016-06-21T13:32:35.816Z,260
2016-06-21T13:33:35.843Z,255
2016-06-21T13:34:35.830Z,250
2016-06-21T13:35:35.840Z,255
2016-06-21T13:36:35.841Z,250
2016-06-21T13:37:35.866Z,225
2016-06-21T13:38:35.850Z,210
2016-06-21T13:39:35.853Z,215
2016-06-21T13:40:35.848Z,235
2016-06-21T13:41:35.866Z,250
2016-06-21T13:42:35.865Z,230
2016-06-21T13:43:35.872Z,215
2016-06-21T13:44:35.900Z,210
2016-06-21T13:45:35.871Z,200
2016-06-21T13:46:36.026Z,190
2016-06-21T13:47:35.905Z,180
2016-06-21T13:48:35.889Z,170
2016-06-21T13:49:35.903Z,165
2016-06-21T13:50:36.066Z,165
2016-06-21T13:51:35.919Z,170
2016-06-21T13:52:35.912Z,180
2016-06-21T13:53:35.924Z,200
2016-06-21T13:54:35.938Z,210
2016-06-21T13:55:35.901Z,195
2016-06-21T13:56:35.919Z,170
2016-06-21T13:57:35.919Z,155
2016-06-21T13:58:35.972Z,150
2016-06-21T13:59:35.936Z,150
2016-06-21T14:00:35.959Z,140
2016-06-21T14:01:35.941Z,135
2016-06-21T14:02:35.931Z,140
2016-06-21T14:03:35.978Z,150
2016-06-21T14:04:35.972Z,160
2016-06-21T14:05:35.342Z,160
2016-06-21T14:06:35.960Z,165
2016-06-21T14:07:35.971Z,165
2016-06-21T14:08:35.983Z,170
2016-06-21T14:09:35.980Z,180
2016-06-21T14:10:35.976Z,185
2016-06-21T14:11:35.970Z,190